Time;durP1;ratioP1;P1;durP2;ratioP2;P2;SDS_P1;SDS_P2;PMS_P1;PMS_P2;Temp;Humidity;BMP_temperature;BMP_pressure;BME280_temperature;BME280_humidity;BME280_pressure;Samples;Min_cycle;Max_cycle;Signal;HPM_P1;HPM_P2
2023/06/10 00:01:49;;;;;;;15.07;12.38;;;;;;;;;;13175959;22;20357;-83
2023/06/10 00:06:51;;;;;;;16.80;13.48;;;;;;;;;;13173291;22;20411;-83
2023/06/10 00:11:54;;;;;;;16.75;13.40;;;;;;;;;;13171845;22;20446;-84
2023/06/10 00:16:59;;;;;;;18.93;14.20;;;;;;;;;;13194967;22;20701;-84
2023/06/10 00:22:01;;;;;;;17.25;13.60;;;;;;;;;;13195183;22;20353;-83
2023/06/10 00:27:03;;;;;;;18.83;13.50;;;;;;;;;;13174166;22;20358;-83
2023/06/10 00:32:08;;;;;;;17.75;13.98;;;;;;;;;;13173005;22;20833;-85
2023/06/10 00:37:10;;;;;;;16.00;12.93;;;;;;;;;;13172836;22;20369;-85
2023/06/10 00:42:12;;;;;;;16.73;12.95;;;;;;;;;;13171390;22;20821;-84
2023/06/10 00:47:16;;;;;;;15.57;12.77;;;;;;;;;;13172969;22;20366;-84
2023/06/10 00:52:19;;;;;;;17.77;13.23;;;;;;;;;;13195488;22;20426;-85
2023/06/10 00:57:22;;;;;;;15.90;11.70;;;;;;;;;;13171905;22;20430;-85
2023/06/10 01:02:26;;;;;;;14.82;11.40;;;;;;;;;;13172420;22;20674;-85
2023/06/10 01:07:37;;;;;;;14.23;11.82;;;;;;;;;;13172643;22;20358;-85
2023/06/10 01:12:48;;;;;;;15.77;11.97;;;;;;;;;;13172338;22;20901;-85
2023/06/10 01:17:57;;;;;;;16.42;12.27;;;;;;;;;;13173715;22;20361;-85
2023/06/10 01:23:03;;;;;;;15.05;11.75;;;;;;;;;;13174787;22;20446;-85
2023/06/10 01:28:11;;;;;;;16.50;11.90;;;;;;;;;;13173156;22;20358;-84
2023/06/10 01:33:18;;;;;;;15.50;11.40;;;;;;;;;;13173641;22;20353;-83
2023/06/10 01:38:22;;;;;;;16.13;11.82;;;;;;;;;;13172303;22;20361;-85
2023/06/10 01:43:25;;;;;;;16.88;12.52;;;;;;;;;;13171877;22;20374;-85
2023/06/10 01:48:27;;;;;;;20.98;12.30;;;;;;;;;;13172291;22;20689;-85
2023/06/10 01:53:31;;;;;;;16.88;12.32;;;;;;;;;;13173138;22;20391;-85
2023/06/10 01:58:33;;;;;;;17.60;12.15;;;;;;;;;;13172191;22;20361;-85
2023/06/10 02:03:36;;;;;;;18.38;12.48;;;;;;;;;;13173439;22;20411;-85
2023/06/10 02:08:39;;;;;;;16.35;12.00;;;;;;;;;;13171330;22;20365;-85
2023/06/10 02:13:42;;;;;;;17.30;12.30;;;;;;;;;;13172482;22;20890;-85
2023/06/10 02:18:46;;;;;;;17.48;13.38;;;;;;;;;;13172985;22;20829;-84
2023/06/10 02:23:49;;;;;;;17.50;12.80;;;;;;;;;;13193865;22;20365;-83
2023/06/10 02:28:52;;;;;;;17.15;13.75;;;;;;;;;;13167174;22;20817;-83
2023/06/10 02:33:55;;;;;;;17.73;12.57;;;;;;;;;;13169813;22;20361;-83
2023/06/10 02:38:59;;;;;;;18.73;13.73;;;;;;;;;;13169698;22;20430;-84
2023/06/10 02:44:02;;;;;;;18.65;13.73;;;;;;;;;;13171612;22;20373;-82
2023/06/10 02:49:04;;;;;;;18.03;13.87;;;;;;;;;;13171548;22;20361;-83
2023/06/10 02:54:08;;;;;;;18.20;14.02;;;;;;;;;;13172466;22;20832;-83
2023/06/10 02:59:10;;;;;;;20.15;14.10;;;;;;;;;;13172609;22;20365;-84
2023/06/10 03:04:13;;;;;;;19.17;15.43;;;;;;;;;;13172791;22;20373;-84
2023/06/10 03:09:17;;;;;;;20.90;15.20;;;;;;;;;;13194338;22;20357;-84
2023/06/10 03:14:19;;;;;;;22.93;15.60;;;;;;;;;;13193672;22;20494;-84
2023/06/10 03:19:23;;;;;;;22.42;15.95;;;;;;;;;;13193579;22;20387;-83
2023/06/10 03:24:26;;;;;;;22.52;16.13;;;;;;;;;;13194460;22;20454;-84
2023/06/10 03:29:29;;;;;;;24.02;16.73;;;;;;;;;;13172203;22;20358;-82
2023/06/10 03:34:31;;;;;;;21.95;16.85;;;;;;;;;;13172478;22;20431;-83
2023/06/10 03:39:35;;;;;;;22.60;16.45;;;;;;;;;;13168279;22;20369;-83
2023/06/10 03:44:38;;;;;;;23.45;17.55;;;;;;;;;;13188841;22;20774;-83
2023/06/10 03:49:40;;;;;;;25.75;18.38;;;;;;;;;;13174574;22;20366;-84
2023/06/10 03:54:44;;;;;;;26.88;18.77;;;;;;;;;;13194036;22;20659;-83
2023/06/10 03:59:46;;;;;;;28.40;19.50;;;;;;;;;;13174686;22;20894;-83
2023/06/10 04:04:49;;;;;;;26.52;18.70;;;;;;;;;;13176421;22;20377;-84
2023/06/10 04:09:52;;;;;;;28.02;19.98;;;;;;;;;;13175628;22;20387;-83
2023/06/10 04:14:55;;;;;;;29.60;21.52;;;;;;;;;;13175454;22;20349;-83
2023/06/10 04:19:58;;;;;;;31.75;21.23;;;;;;;;;;13175936;22;20365;-82
2023/06/10 04:25:01;;;;;;;30.30;22.00;;;;;;;;;;13174856;22;20385;-84
2023/06/10 04:30:05;;;;;;;32.58;21.35;;;;;;;;;;13174703;22;20414;-83
2023/06/10 04:35:09;;;;;;;31.67;22.07;;;;;;;;;;13147424;22;20474;-84
2023/06/10 04:40:13;;;;;;;32.90;21.90;;;;;;;;;;13146834;22;20366;-84
2023/06/10 04:45:15;;;;;;;30.63;21.20;;;;;;;;;;13174114;22;20379;-84
2023/06/10 04:50:18;;;;;;;30.37;21.63;;;;;;;;;;13173867;22;20369;-84
2023/06/10 04:55:22;;;;;;;30.43;21.67;;;;;;;;;;13177047;22;20427;-85
2023/06/10 05:00:25;;;;;;;32.53;21.73;;;;;;;;;;13173074;22;20686;-83
2023/06/10 05:05:27;;;;;;;29.57;21.37;;;;;;;;;;13173210;22;20373;-83
2023/06/10 05:10:32;;;;;;;27.70;20.65;;;;;;;;;;13173302;22;20354;-86
2023/06/10 05:15:34;;;;;;;30.13;20.60;;;;;;;;;;13183219;22;20650;-84
2023/06/10 05:20:36;;;;;;;27.57;19.27;;;;;;;;;;13173276;22;20890;-84
2023/06/10 05:25:41;;;;;;;31.27;20.77;;;;;;;;;;13193986;22;20377;-83
2023/06/10 05:30:43;;;;;;;26.02;19.10;;;;;;;;;;13195534;22;20362;-85
2023/06/10 05:35:46;;;;;;;26.73;18.88;;;;;;;;;;13171532;22;20682;-84
2023/06/10 05:40:49;;;;;;;27.55;18.73;;;;;;;;;;13172467;22;20365;-84
2023/06/10 05:45:52;;;;;;;24.60;17.95;;;;;;;;;;13169932;22;20378;-86
2023/06/10 05:50:54;;;;;;;28.63;19.48;;;;;;;;;;13171265;22;20365;-87
2023/06/10 05:55:58;;;;;;;24.98;18.48;;;;;;;;;;13195691;22;20353;-87
2023/06/10 06:01:01;;;;;;;24.47;17.77;;;;;;;;;;13171878;22;20358;-87
2023/06/10 06:06:03;;;;;;;21.02;16.10;;;;;;;;;;13172417;22;20459;-86
2023/06/10 06:11:07;;;;;;;18.75;14.25;;;;;;;;;;13173483;22;20361;-86
2023/06/10 06:16:09;;;;;;;17.55;13.73;;;;;;;;;;13173563;22;20358;-86
2023/06/10 06:21:12;;;;;;;18.85;14.23;;;;;;;;;;13173424;22;20415;-86
2023/06/10 06:26:16;;;;;;;18.13;14.38;;;;;;;;;;13172291;22;20921;-86
2023/06/10 06:31:18;;;;;;;17.83;14.10;;;;;;;;;;13171508;22;20575;-86
2023/06/10 06:36:21;;;;;;;16.60;13.77;;;;;;;;;;13172747;22;20394;-86
2023/06/10 06:41:25;;;;;;;16.35;13.88;;;;;;;;;;13172241;22;20431;-86
2023/06/10 06:46:28;;;;;;;17.27;13.13;;;;;;;;;;13173022;22;20381;-86
2023/06/10 06:51:30;;;;;;;16.23;12.50;;;;;;;;;;13172113;22;20413;-86
2023/06/10 06:56:35;;;;;;;17.55;12.75;;;;;;;;;;13194568;22;20361;-84
2023/06/10 07:01:37;;;;;;;16.88;12.98;;;;;;;;;;13171745;22;20438;-83
2023/06/10 07:06:39;;;;;;;14.10;11.73;;;;;;;;;;13174050;22;20373;-83
2023/06/10 07:11:43;;;;;;;15.32;12.45;;;;;;;;;;13194401;22;20365;-82
2023/06/10 07:16:46;;;;;;;16.33;13.38;;;;;;;;;;13174554;22;20357;-83
2023/06/10 07:21:48;;;;;;;15.13;12.45;;;;;;;;;;13175124;22;20350;-91
2023/06/10 07:26:52;;;;;;;15.13;11.88;;;;;;;;;;13173997;22;20426;-91
2023/06/10 07:31:54;;;;;;;16.20;12.32;;;;;;;;;;13195889;22;20391;-90
2023/06/10 07:36:56;;;;;;;13.60;11.07;;;;;;;;;;13175776;22;20411;-90
2023/06/10 07:42:00;;;;;;;10.90;9.25;;;;;;;;;;13174374;22;20361;-90
2023/06/10 07:47:03;;;;;;;9.50;8.27;;;;;;;;;;13174646;22;20419;-91
2023/06/10 07:52:06;;;;;;;10.87;8.57;;;;;;;;;;13175262;22;20829;-91
2023/06/10 07:57:10;;;;;;;11.98;9.50;;;;;;;;;;13175127;22;20748;-90
2023/06/10 08:02:12;;;;;;;9.03;7.73;;;;;;;;;;13172424;22;20886;-92
2023/06/10 08:07:15;;;;;;;11.55;8.38;;;;;;;;;;13173261;22;20391;-77
2023/06/10 08:12:18;;;;;;;10.18;7.90;;;;;;;;;;13173508;22;20411;-90
2023/06/10 08:17:21;;;;;;;10.63;8.23;;;;;;;;;;13171771;22;20879;-91
2023/06/10 08:22:23;;;;;;;13.83;9.70;;;;;;;;;;13174523;22;20384;-90
2023/06/10 08:27:27;;;;;;;9.43;8.45;;;;;;;;;;13176809;22;20406;-91
2023/06/10 08:32:29;;;;;;;10.68;8.40;;;;;;;;;;13174039;22;20354;-90
2023/06/10 08:37:32;;;;;;;11.77;9.80;;;;;;;;;;13175495;22;20898;-90
2023/06/10 08:42:43;;;;;;;10.70;8.23;;;;;;;;;;13174640;22;20419;-89
2023/06/10 08:47:47;;;;;;;11.02;9.63;;;;;;;;;;13203926;22;20369;-89
2023/06/10 08:52:51;;;;;;;10.73;9.50;;;;;;;;;;13181306;22;20415;-90
2023/06/10 08:57:55;;;;;;;10.97;9.43;;;;;;;;;;13177410;22;20662;-89
2023/06/10 09:02:59;;;;;;;12.73;9.95;;;;;;;;;;13176527;22;20414;-89
2023/06/10 09:08:02;;;;;;;12.77;9.27;;;;;;;;;;13177141;22;20824;-89
2023/06/10 09:13:06;;;;;;;10.75;9.63;;;;;;;;;;13175441;22;20768;-89
2023/06/10 09:18:08;;;;;;;11.33;9.73;;;;;;;;;;13198254;22;20419;-89
2023/06/10 09:23:11;;;;;;;9.43;8.32;;;;;;;;;;13177972;22;20362;-90
2023/06/10 09:28:18;;;;;;;9.43;8.00;;;;;;;;;;13178439;22;20450;-89
2023/06/10 09:33:21;;;;;;;81.72;11.85;;;;;;;;;;13177551;22;20462;-79
2023/06/10 09:38:23;;;;;;;7.18;6.20;;;;;;;;;;13170888;22;20894;-78
2023/06/10 09:43:40;;;;;;;9.75;7.72;;;;;;;;;;13169704;22;20438;-87
2023/06/10 09:48:44;;;;;;;10.52;7.20;;;;;;;;;;13166547;22;20445;-86
2023/06/10 09:53:49;;;;;;;9.10;8.07;;;;;;;;;;13186729;22;20463;-84
2023/06/10 09:58:55;;;;;;;6.13;5.40;;;;;;;;;;13166209;22;20361;-84
2023/06/10 10:03:58;;;;;;;5.90;4.07;;;;;;;;;;13187869;22;20357;-84
2023/06/10 10:09:03;;;;;;;6.93;5.20;;;;;;;;;;13166067;22;20426;-85
2023/06/10 10:14:08;;;;;;;9.73;8.45;;;;;;;;;;13166082;22;20354;-85
2023/06/10 10:19:17;;;;;;;10.60;9.37;;;;;;;;;;13166964;22;20358;-85
2023/06/10 10:24:22;;;;;;;14.60;11.60;;;;;;;;;;13156676;22;20495;-84
2023/06/10 10:29:32;;;;;;;14.10;11.80;;;;;;;;;;13159000;22;20446;-84
2023/06/10 10:34:42;;;;;;;13.50;10.67;;;;;;;;;;13159859;22;20373;-88
2023/06/10 10:39:46;;;;;;;14.07;11.10;;;;;;;;;;13158849;22;20373;-83
2023/06/10 10:44:51;;;;;;;14.35;11.75;;;;;;;;;;13157688;22;20365;-85
2023/06/10 10:49:54;;;;;;;13.15;10.35;;;;;;;;;;13159128;22;20861;-84
2023/06/10 10:54:56;;;;;;;12.35;10.27;;;;;;;;;;13160347;22;20844;-86
2023/06/10 11:00:01;;;;;;;17.17;12.63;;;;;;;;;;13159222;22;20373;-80
2023/06/10 11:05:04;;;;;;;17.52;14.20;;;;;;;;;;13157676;22;20430;-79
2023/06/10 11:10:09;;;;;;;21.10;15.93;;;;;;;;;;13158503;22;20898;-83
2023/06/10 11:15:13;;;;;;;20.55;16.80;;;;;;;;;;13153529;22;20406;-84
2023/06/10 11:20:43;;;;;;;20.80;15.85;;;;;;;;;;13158823;22;20674;-83
2023/06/10 11:25:45;;;;;;;21.90;16.60;;;;;;;;;;13159568;22;20385;-84
2023/06/10 11:30:58;;;;;;;21.95;16.30;;;;;;;;;;13160114;22;20918;-84
2023/06/10 11:36:00;;;;;;;20.75;16.30;;;;;;;;;;13158502;22;20516;-83
2023/06/10 11:41:03;;;;;;;25.23;16.20;;;;;;;;;;13157348;22;20369;-86
2023/06/10 11:46:08;;;;;;;20.50;14.60;;;;;;;;;;13159157;22;20373;-84
2023/06/10 11:51:11;;;;;;;20.00;15.70;;;;;;;;;;13159360;22;20449;-84
2023/06/10 11:56:13;;;;;;;20.20;15.57;;;;;;;;;;13158905;22;20955;-83
2023/06/10 12:01:23;;;;;;;17.17;13.95;;;;;;;;;;13160529;22;20430;-84
2023/06/10 12:06:25;;;;;;;18.27;14.15;;;;;;;;;;13162423;22;20378;-84
2023/06/10 12:11:28;;;;;;;17.45;13.68;;;;;;;;;;13179951;22;20511;-83
2023/06/10 12:16:32;;;;;;;18.05;14.02;;;;;;;;;;13163230;22;21006;-84
2023/06/10 12:21:35;;;;;;;19.15;14.15;;;;;;;;;;13163337;22;20426;-84
2023/06/10 12:26:40;;;;;;;18.00;14.50;;;;;;;;;;13161992;22;20865;-85
2023/06/10 12:31:58;;;;;;;19.93;15.10;;;;;;;;;;13165349;22;20377;-85
2023/06/10 12:37:04;;;;;;;20.37;15.33;;;;;;;;;;13165363;22;20395;-84
2023/06/10 12:42:08;;;;;;;19.60;15.73;;;;;;;;;;13167949;22;20856;-85
2023/06/10 12:47:13;;;;;;;21.60;16.87;;;;;;;;;;13166707;22;20892;-74
2023/06/10 12:52:15;;;;;;;18.63;14.73;;;;;;;;;;13170896;22;20419;-85
2023/06/10 12:57:17;;;;;;;19.30;15.40;;;;;;;;;;13170514;22;20358;-78
2023/06/10 13:02:23;;;;;;;19.55;14.65;;;;;;;;;;13168962;22;20361;-84
2023/06/10 13:07:26;;;;;;;19.63;15.50;;;;;;;;;;13174607;22;20679;-88
2023/06/10 13:12:30;;;;;;;22.03;15.17;;;;;;;;;;13175506;22;20365;-87
2023/06/10 13:17:35;;;;;;;16.33;12.47;;;;;;;;;;13174780;22;20422;-89
2023/06/10 13:22:38;;;;;;;17.55;13.30;;;;;;;;;;13174394;22;20732;-87
2023/06/10 13:27:41;;;;;;;20.33;15.77;;;;;;;;;;13173904;22;20431;-86
2023/06/10 13:32:45;;;;;;;17.50;14.03;;;;;;;;;;13173633;22;20354;-87
2023/06/10 13:37:47;;;;;;;18.77;15.23;;;;;;;;;;13172922;22;20766;-86
2023/06/10 13:42:50;;;;;;;19.48;15.25;;;;;;;;;;13169976;22;20362;-88
2023/06/10 13:47:57;;;;;;;17.67;13.55;;;;;;;;;;13171545;22;20370;-88
2023/06/10 13:53:00;;;;;;;18.67;14.40;;;;;;;;;;13169439;22;20422;-86
2023/06/10 13:58:02;;;;;;;20.00;13.60;;;;;;;;;;13169844;22;20423;-87
2023/06/10 14:03:06;;;;;;;19.90;15.13;;;;;;;;;;13168008;22;20361;-87
2023/06/10 14:08:08;;;;;;;19.10;13.65;;;;;;;;;;13170150;22;20377;-88
2023/06/10 14:13:10;;;;;;;18.10;13.93;;;;;;;;;;13166805;22;20391;-78
2023/06/10 14:18:14;;;;;;;16.38;13.00;;;;;;;;;;13164450;22;20357;-78
2023/06/10 14:23:17;;;;;;;15.50;12.47;;;;;;;;;;13167156;22;20357;-77
2023/06/10 14:28:19;;;;;;;14.00;11.70;;;;;;;;;;13188636;22;20373;-87
2023/06/10 14:33:23;;;;;;;14.27;12.23;;;;;;;;;;13167534;22;20388;-87
2023/06/10 14:38:25;;;;;;;13.43;11.40;;;;;;;;;;13168545;22;20365;-85
2023/06/10 14:43:27;;;;;;;13.75;11.57;;;;;;;;;;13167775;22;20450;-89
2023/06/10 14:48:31;;;;;;;13.38;11.27;;;;;;;;;;13169918;22;20700;-90
2023/06/10 14:53:33;;;;;;;12.27;10.97;;;;;;;;;;13188836;22;20727;-90
2023/06/10 14:58:36;;;;;;;10.73;9.40;;;;;;;;;;13167831;22;20391;-89
2023/06/10 15:03:39;;;;;;;10.15;9.00;;;;;;;;;;13167688;22;20365;-87
2023/06/10 15:08:42;;;;;;;10.20;8.53;;;;;;;;;;13167234;22;20442;-88
2023/06/10 15:13:44;;;;;;;10.20;8.10;;;;;;;;;;13168720;22;20383;-86
2023/06/10 15:18:48;;;;;;;11.30;8.20;;;;;;;;;;13169097;22;20353;-88
2023/06/10 15:23:51;;;;;;;10.60;7.50;;;;;;;;;;13171437;22;20414;-87
2023/06/10 15:28:53;;;;;;;10.10;7.37;;;;;;;;;;13170549;22;20373;-88
2023/06/10 15:33:57;;;;;;;9.43;6.45;;;;;;;;;;13169786;22;21053;-76
2023/06/10 15:39:03;;;;;;;8.40;6.07;;;;;;;;;;13170498;22;20455;-83
2023/06/10 15:44:06;;;;;;;8.18;5.90;;;;;;;;;;13170304;22;20427;-84
2023/06/10 15:49:10;;;;;;;5.80;4.88;;;;;;;;;;13172411;22;20835;-84
2023/06/10 15:54:12;;;;;;;7.63;4.90;;;;;;;;;;13170930;22;20357;-80
2023/06/10 15:59:14;;;;;;;8.68;5.35;;;;;;;;;;13143297;22;20362;-80
2023/06/10 16:04:18;;;;;;;5.82;4.47;;;;;;;;;;13179639;22;20358;-91
2023/06/10 16:09:20;;;;;;;6.40;4.40;;;;;;;;;;13176975;22;20374;-91
2023/06/10 16:14:23;;;;;;;7.93;4.38;;;;;;;;;;13178303;22;20362;-91
2023/06/10 16:19:26;;;;;;;5.63;3.58;;;;;;;;;;13169565;22;20357;-73
2023/06/10 16:24:28;;;;;;;8.23;5.03;;;;;;;;;;13167152;22;20361;-77
2023/06/10 16:29:31;;;;;;;6.63;4.40;;;;;;;;;;13169373;22;20837;-77
2023/06/10 16:34:34;;;;;;;5.00;4.07;;;;;;;;;;13173065;22;20693;-77
2023/06/10 16:39:37;;;;;;;3.67;3.13;;;;;;;;;;13166789;22;20395;-80
2023/06/10 16:44:39;;;;;;;4.50;3.30;;;;;;;;;;13168990;22;20342;-81
2023/06/10 16:49:42;;;;;;;4.75;3.58;;;;;;;;;;13167708;22;20378;-82
2023/06/10 16:54:45;;;;;;;7.43;3.60;;;;;;;;;;13189679;22;20418;-78
2023/06/10 16:59:47;;;;;;;5.93;4.28;;;;;;;;;;13168644;22;20430;-76
2023/06/10 17:04:51;;;;;;;9.70;7.10;;;;;;;;;;13169397;22;20387;-85
2023/06/10 17:09:53;;;;;;;13.23;7.47;;;;;;;;;;13192127;22;20378;-85
2023/06/10 17:14:55;;;;;;;16.02;8.80;;;;;;;;;;13167526;22;20357;-83
2023/06/10 17:19:59;;;;;;;11.52;8.52;;;;;;;;;;13167384;22;20407;-83
2023/06/10 17:25:01;;;;;;;11.95;8.95;;;;;;;;;;13167901;22;20400;-83
2023/06/10 17:30:04;;;;;;;14.68;9.80;;;;;;;;;;13162934;22;20377;-84
2023/06/10 17:35:09;;;;;;;12.23;8.40;;;;;;;;;;13168855;22;20354;-84
2023/06/10 17:40:13;;;;;;;11.57;8.67;;;;;;;;;;13166394;22;20422;-83
2023/06/10 17:45:16;;;;;;;13.40;8.83;;;;;;;;;;13166270;22;20736;-83
2023/06/10 17:50:19;;;;;;;10.23;8.10;;;;;;;;;;13188354;22;20440;-75
2023/06/10 17:55:22;;;;;;;11.88;8.25;;;;;;;;;;13166650;22;20817;-74
2023/06/10 18:00:25;;;;;;;9.10;7.47;;;;;;;;;;13165972;22;20366;-83
2023/06/10 18:05:28;;;;;;;9.50;7.67;;;;;;;;;;13165277;22;20357;-83
2023/06/10 18:10:31;;;;;;;8.47;7.53;;;;;;;;;;13162949;22;20828;-83
2023/06/10 18:15:33;;;;;;;9.23;7.50;;;;;;;;;;13161596;22;20361;-82
2023/06/10 18:20:37;;;;;;;8.53;7.40;;;;;;;;;;13165995;22;20357;-84
2023/06/10 18:25:39;;;;;;;8.50;7.23;;;;;;;;;;13165478;22;20410;-83
2023/06/10 18:30:41;;;;;;;9.20;7.40;;;;;;;;;;13159075;22;20442;-84
2023/06/10 18:35:45;;;;;;;9.70;7.30;;;;;;;;;;13157826;22;21044;-82
2023/06/10 18:40:47;;;;;;;9.20;7.25;;;;;;;;;;13155575;22;20377;-82
2023/06/10 18:45:50;;;;;;;10.47;7.50;;;;;;;;;;13158510;22;20427;-83
2023/06/10 18:50:53;;;;;;;8.68;7.78;;;;;;;;;;13178888;22;20373;-83
2023/06/10 18:56:01;;;;;;;9.95;7.57;;;;;;;;;;13160493;22;20358;-83
2023/06/10 19:01:04;;;;;;;15.77;13.80;;;;;;;;;;13159134;22;20357;-83
2023/06/10 19:06:08;;;;;;;13.88;12.43;;;;;;;;;;13158153;22;20369;-83
2023/06/10 19:11:12;;;;;;;10.15;7.80;;;;;;;;;;13161914;22;20377;-84
2023/06/10 19:16:14;;;;;;;9.53;8.23;;;;;;;;;;13162827;22;20365;-83
2023/06/10 19:21:18;;;;;;;8.23;7.43;;;;;;;;;;13161756;22;20450;-83
2023/06/10 19:26:21;;;;;;;9.68;7.88;;;;;;;;;;13162938;22;20443;-83
2023/06/10 19:31:23;;;;;;;8.32;7.40;;;;;;;;;;13162770;22;20369;-83
2023/06/10 19:36:27;;;;;;;9.88;7.72;;;;;;;;;;13163528;22;20369;-83
2023/06/10 19:41:30;;;;;;;8.52;6.88;;;;;;;;;;13162817;22;21141;-83
2023/06/10 19:46:32;;;;;;;7.72;6.88;;;;;;;;;;13162299;22;20373;-83
2023/06/10 19:51:36;;;;;;;8.27;6.57;;;;;;;;;;13161909;22;20373;-82
2023/06/10 19:56:38;;;;;;;9.60;8.00;;;;;;;;;;13162843;22;20370;-83
2023/06/10 20:01:41;;;;;;;12.53;8.87;;;;;;;;;;13161678;22;20430;-83
2023/06/10 20:06:45;;;;;;;9.95;8.15;;;;;;;;;;13162137;22;20887;-82
2023/06/10 20:11:48;;;;;;;10.07;8.15;;;;;;;;;;13166836;22;20922;-83
2023/06/10 20:16:50;;;;;;;11.60;9.15;;;;;;;;;;13166722;22;20373;-84
2023/06/10 20:21:56;;;;;;;12.98;9.95;;;;;;;;;;13161344;22;20458;-83
2023/06/10 20:26:58;;;;;;;9.85;8.80;;;;;;;;;;13176066;22;20693;-83
2023/06/10 20:32:01;;;;;;;10.77;8.15;;;;;;;;;;13164917;22;20381;-84
2023/06/10 20:37:05;;;;;;;10.20;8.27;;;;;;;;;;13181487;22;20361;-83
2023/06/10 20:42:08;;;;;;;9.55;8.55;;;;;;;;;;13101675;22;20440;-83
2023/06/10 20:47:11;;;;;;;10.98;8.50;;;;;;;;;;13095224;22;20436;-83
2023/06/10 20:52:14;;;;;;;9.90;8.35;;;;;;;;;;13101410;22;20374;-84
2023/06/10 20:57:17;;;;;;;11.05;8.68;;;;;;;;;;13099605;22;20371;-84
2023/06/10 21:02:20;;;;;;;10.63;8.37;;;;;;;;;;13103546;22;20518;-83
2023/06/10 21:07:23;;;;;;;13.50;9.27;;;;;;;;;;13100973;22;20407;-84
2023/06/10 21:12:26;;;;;;;9.00;7.90;;;;;;;;;;13101094;22;20437;-83
2023/06/10 21:17:28;;;;;;;9.00;7.80;;;;;;;;;;13100141;22;20432;-84
2023/06/10 21:22:32;;;;;;;8.18;7.03;;;;;;;;;;13101798;22;20375;-83
2023/06/10 21:27:34;;;;;;;8.60;7.37;;;;;;;;;;13100401;22;20375;-84
2023/06/10 21:32:37;;;;;;;8.45;6.88;;;;;;;;;;13098837;22;20850;-84
2023/06/10 21:37:41;;;;;;;8.75;7.50;;;;;;;;;;13123861;22;20420;-84
2023/06/10 21:42:43;;;;;;;9.45;7.75;;;;;;;;;;13164786;22;20370;-84
2023/06/10 21:47:47;;;;;;;9.60;8.27;;;;;;;;;;13162408;22;21377;-83
2023/06/10 21:52:51;;;;;;;8.90;8.00;;;;;;;;;;13163010;22;20914;-84
2023/06/10 21:57:53;;;;;;;8.32;6.88;;;;;;;;;;13163119;22;20415;-84
2023/06/10 22:02:55;;;;;;;8.33;6.83;;;;;;;;;;13164150;22;20365;-84
2023/06/10 22:08:00;;;;;;;10.10;7.80;;;;;;;;;;13164947;22;20933;-86
2023/06/10 22:13:02;;;;;;;9.53;7.33;;;;;;;;;;13196321;22;20373;-87
2023/06/10 22:18:06;;;;;;;8.82;6.53;;;;;;;;;;13174080;22;20354;-85
2023/06/10 22:23:10;;;;;;;9.20;5.75;;;;;;;;;;13175329;22;20388;-85
2023/06/10 22:28:12;;;;;;;8.40;5.17;;;;;;;;;;13174821;22;20825;-85
2023/06/10 22:33:14;;;;;;;5.88;4.10;;;;;;;;;;13174897;22;20446;-86
2023/06/10 22:38:18;;;;;;;7.13;4.13;;;;;;;;;;13176351;22;20438;-86
2023/06/10 22:43:21;;;;;;;5.63;4.47;;;;;;;;;;13171972;22;20358;-85
2023/06/10 22:48:23;;;;;;;7.22;6.07;;;;;;;;;;13174710;22;20354;-86
2023/06/10 22:53:27;;;;;;;10.38;7.45;;;;;;;;;;13174844;22;20820;-86
2023/06/10 22:58:29;;;;;;;9.07;7.28;;;;;;;;;;13174808;22;20361;-86
2023/06/10 23:03:31;;;;;;;11.10;7.60;;;;;;;;;;13196250;22;20810;-85
2023/06/10 23:08:35;;;;;;;8.63;7.20;;;;;;;;;;13173549;22;20418;-85
2023/06/10 23:13:38;;;;;;;9.00;6.30;;;;;;;;;;13172765;22;20354;-85
2023/06/10 23:18:41;;;;;;;8.48;5.95;;;;;;;;;;13173196;22;20438;-86
2023/06/10 23:23:45;;;;;;;5.30;4.70;;;;;;;;;;13172776;22;20451;-86
2023/06/10 23:28:47;;;;;;;8.07;5.40;;;;;;;;;;13171132;22;20830;-85
2023/06/10 23:33:49;;;;;;;6.97;5.28;;;;;;;;;;13170853;22;20829;-86
2023/06/10 23:38:53;;;;;;;7.22;5.72;;;;;;;;;;13171081;22;20381;-86
2023/06/10 23:43:55;;;;;;;5.80;4.90;;;;;;;;;;13174486;22;20414;-86
2023/06/10 23:48:58;;;;;;;7.13;5.40;;;;;;;;;;13173239;22;20374;-86
2023/06/10 23:54:02;;;;;;;6.27;4.73;;;;;;;;;;13172572;22;20350;-86
2023/06/10 23:59:04;;;;;;;7.13;3.97;;;;;;;;;;13176589;22;20361;-86
